Aéroport Valenciennes-Denain

LFAV · Département du Nord, Nord-Pas-de-Calais-Picardie, France

METAR anciennes LFAV · Aéroport Valenciennes-Denain

Tu vois ci-dessous les METAR des derniers jours. Sélectionne une année pour parcourir les METAR plus anciens, à partir de l'année 2007.

25 mai 2024

Temps Code Temps Temp. Vue Base cloud Vent METAR/SPECI
15:30
V
20 °C 10 km+ 5.600 ft 260° 260° 7 kt METAR LFQQ 251330Z AUTO 26007KT 220V290 9999 FEW048 BKN056 BKN066 20/09 Q1017 NOSIG
15:00
V
19 °C 10 km+ 5.800 ft 250° 250° 6 kt METAR LFQQ 251300Z AUTO 25006KT 220V300 9999 SCT049 BKN058 19/09 Q1017 NOSIG
14:30
V
20 °C 10 km+ 5.800 ft 250° 250° 9 kt METAR LFQQ 251230Z AUTO 25009KT 210V280 9999 FEW043 BKN058 20/08 Q1017 NOSIG
14:00
V
20 °C 10 km+ 4.200 ft 290° 290° 7 kt METAR LFQQ 251200Z AUTO 29007KT 240V310 9999 BKN042 BKN048 BKN054 20/11 Q1017 NOSIG
13:30
V
19 °C 10 km+ - 250° 250° 9 kt METAR LFQQ 251130Z AUTO 25009KT 210V280 9999 FEW043 19/09 Q1017 NOSIG
13:00
V
19 °C 10 km+ - 270° 270° 8 kt METAR LFQQ 251100Z AUTO 27008KT 240V310 9999 FEW038 19/09 Q1017 NOSIG
12:30
V
18 °C 10 km+ - 280° 280° 7 kt METAR LFQQ 251030Z AUTO 28007KT 240V330 9999 FEW033 18/10 Q1017 NOSIG
12:00
V
18 °C 10 km+ - 250° 250° 7 kt METAR LFQQ 251000Z AUTO 25007KT 200V300 9999 FEW031 18/09 Q1018 NOSIG
11:30
V
17 °C 10 km+ - 250° 250° 7 kt METAR LFQQ 250930Z AUTO 25007KT 210V310 9999 FEW024 17/11 Q1018 NOSIG
11:00
V
16 °C 10 km+ - 260° 260° 6 kt METAR LFQQ 250900Z AUTO 26006KT 210V310 9999 FEW022 16/11 Q1018 NOSIG
10:30
V
16 °C 10 km+ - 270° 270° 7 kt METAR LFQQ 250830Z AUTO 27007KT CAVOK 16/11 Q1018 NOSIG
10:00
V
15 °C 10 km+ - 260° 260° 7 kt METAR LFQQ 250800Z AUTO 26007KT CAVOK 15/10 Q1018 NOSIG
09:30
V
14 °C 9 km - 290° 290° 6 kt METAR LFQQ 250730Z AUTO 29006KT 250V310 9000 NSC 14/10 Q1018 NOSIG
09:00
V
13 °C 8 km - 290° 290° 6 kt METAR LFQQ 250700Z AUTO 29006KT 250V340 8000 NSC 13/11 Q1018 NOSIG
08:30
M
11 °C 6 km - 260° 260° 5 kt METAR LFQQ 250630Z AUTO 26005KT 6000 NSC 11/10 Q1018 NOSIG
08:00
I
10 °C 4 km - 260° 260° 3 kt METAR LFQQ 250600Z AUTO 26003KT 240V300 4000 BR NSC 10/09 Q1018 BECMG 9999 NSW
07:30
I
9 °C 4,2 km - 260° 260° 4 kt METAR LFQQ 250530Z AUTO 26004KT 4200 BR NSC 09/09 Q1018 BECMG 9999 NSW
07:00
I
9 °C 4,4 km - 270° 270° 4 kt METAR LFQQ 250500Z AUTO 27004KT 4400 BR NSC 09/08 Q1018 TEMPO OVC003 BECMG 9999 NSW
06:30
I
9 °C 3,9 km - 270° 270° 6 kt METAR LFQQ 250430Z AUTO 27006KT 3900 BR NSC 09/08 Q1018 TEMPO OVC003 BECMG 9999 NSW
06:00
I
9 °C 3,7 km - 270° 270° 6 kt METAR LFQQ 250400Z AUTO 27006KT 3700 BR NSC 09/08 Q1018 TEMPO OVC003
05:30
M
9 °C 5 km - 280° 280° 4 kt METAR LFQQ 250330Z AUTO 28004KT 5000 BR NSC 09/08 Q1018 TEMPO OVC003
05:00
M
9 °C 6 km - 270° 270° 6 kt METAR LFQQ 250300Z AUTO 27006KT 6000 NSC 09/08 Q1018 TEMPO 3000 BR OVC003
04:30
V
9 °C 9 km - 270° 270° 7 kt METAR LFQQ 250230Z AUTO 27007KT 9000 NSC 09/08 Q1018 TEMPO 3000 BR OVC003
04:00
V
9 °C 10 km+ - 280° 280° 5 kt METAR LFQQ 250200Z AUTO 28005KT CAVOK 09/08 Q1018 TEMPO 3000 BR OVC003
03:30
V
10 °C 10 km+ - 240° 240° 6 kt METAR LFQQ 250130Z AUTO 24006KT CAVOK 10/09 Q1018 TEMPO 3000 BR OVC003
03:00
V
11 °C 10 km+ - 340° 340° 3 kt METAR LFQQ 250100Z AUTO 34003KT CAVOK 11/09 Q1018 TEMPO 3000 BR OVC003
02:30
V
11 °C 10 km+ - 330° 330° 3 kt METAR LFQQ 250030Z AUTO 33003KT CAVOK 11/09 Q1019 TEMPO 3000 BR OVC003
02:00
V
11 °C 10 km+ - 280° 280° 4 kt METAR LFQQ 250000Z AUTO 28004KT CAVOK 11/09 Q1019 NOSIG
01:30
V
11 °C 10 km+ - 330° 330° 4 kt METAR LFQQ 242330Z AUTO 33004KT CAVOK 11/09 Q1019 NOSIG
01:00
V
11 °C 10 km+ - 300° 300° 4 kt METAR LFQQ 242300Z AUTO 30004KT CAVOK 11/09 Q1019 NOSIG
00:30
V
12 °C 10 km+ - 230° 230° 3 kt METAR LFQQ 242230Z AUTO 23003KT 9999 FEW038 12/09 Q1019 NOSIG
00:00
V
12 °C 10 km+ 3.700 ft 220° 220° 1 kt METAR LFQQ 242200Z AUTO 22001KT 9999 BKN037 12/10 Q1019 NOSIG

24 mai 2024

Temps Code Temps Temp. Vue Base cloud Vent METAR/SPECI
23:30
V
13 °C 10 km+ 3.500 ft Var Var 2 kt METAR LFQQ 242130Z AUTO VRB02KT 9999 BKN035 13/10 Q1019 NOSIG
23:00
V
13 °C 10 km+ 11.000 ft Var Var 1 kt METAR LFQQ 242100Z AUTO VRB01KT 9999 FEW034 BKN110 13/09 Q1019 NOSIG
22:30
V
14 °C 10 km+ - 350° 350° 4 kt METAR LFQQ 242030Z AUTO 35004KT 310V040 CAVOK 14/10 Q1019 NOSIG
22:00
V
15 °C 10 km+ 5.400 ft 360° 360° 6 kt METAR LFQQ 242000Z AUTO 36006KT 9999 FEW024 BKN054 BKN064 15/10 Q1019 NOSIG
21:30
V
15 °C 10 km+ 5.800 ft 010° 010° 6 kt METAR LFQQ 241930Z AUTO 01006KT 9999 SCT024 SCT048 BKN058 15/10 Q1019 NOSIG
21:00
V
15 °C 10 km+ 10.000 ft 350° 350° 5 kt METAR LFQQ 241900Z AUTO 35005KT 9999 FEW022 SCT054 OVC100 15/11 Q1019 NOSIG
20:30
V
16 °C 10 km+ - 340° 340° 7 kt METAR LFQQ 241830Z AUTO 34007KT CAVOK 16/11 Q1019 NOSIG
20:00
V
16 °C 10 km+ - 010° 010° 5 kt METAR LFQQ 241800Z AUTO 01005KT 330V040 CAVOK 16/12 Q1019 TEMPO 4000 SHRA SCT014 SCT030CB
19:30
V
16 °C 10 km+ - 020° 020° 7 kt METAR LFQQ 241730Z AUTO 02007KT CAVOK 16/12 Q1019 TEMPO 4000 SHRA SCT014 SCT030CB
19:00
V
16 °C 10 km+ - 020° 020° 9 kt METAR LFQQ 241700Z AUTO 02009KT 9999 //////TCU 16/12 Q1018 TEMPO 4000 SHRA BECMG BKN030
18:30
V
16 °C 10 km+ - 020° 020° 9 kt METAR LFQQ 241630Z AUTO 02009KT 9999 ///CB 16/12 Q1018 TEMPO 4000 SHRA BECMG BKN030
18:00
V
16 °C 10 km+ 9.400 ft 030° 030° 11 kt METAR LFQQ 241600Z AUTO 03011KT 9999 FEW031/// OVC094/// //////CB 16/12 Q1018 TEMPO 4000 SHRA SCT008 BKN013CB
17:30
V
15 °C 10 km+ 4.000 ft 030° 030° 9 kt METAR LFQQ 241530Z AUTO 03009KT 9999 -RA FEW026/// SCT031/// BKN040/// //////CB 15/12 Q1018 TEMPO 4000 SHRA SCT008 BKN013CB
17:00
V
16 °C 10 km+ 3.100 ft 040° 040° 10 kt METAR LFQQ 241500Z AUTO 04010KT 9999 -RA FEW026/// BKN031/// BKN041/// //////CB 16/12 Q1018 TEMPO 1500 TSRAGS SCT008 BKN013CB
16:30
V
17 °C 10 km+ 3.200 ft 040° 040° 7 kt METAR LFQQ 241430Z AUTO 04007KT 360V070 9999 FEW024/// BKN032/// BKN070/// //////CB 17/11 Q1018 TEMPO 1500 TSRAGS SCT008 BKN013CB
16:00
V
18 °C 10 km+ 7.200 ft 330° 330° 8 kt METAR LFQQ 241400Z AUTO 33008KT 290V350 9999 FEW030/// BKN072/// BKN082/// //////CB 18/13 Q1018 TEMPO 1500 TSRAGS SCT008 BKN013CB
15:30
V
16 °C 10 km+ 4.700 ft 330° 330° 7 kt METAR LFQQ 241330Z AUTO 33007KT 9999 FEW030/// BKN047/// BKN060/// ///CB 16/13 Q1018 TEMPO 1500 TSRAGS SCT008 BKN013CB
15:00
I
16 °C 4,3 km 3.500 ft 340° 340° 7 kt METAR LFQQ 241300Z AUTO 34007KT 4300 RA BR BKN035/// BKN045/// OVC056/// ///CB 16/12 Q1018 TEMPO 1500 TSRAGS SCT008 BKN013CB
14:30
V
17 °C 10 km+ 3.500 ft 340° 340° 6 kt METAR LFQQ 241230Z AUTO 34006KT 9999 BKN035/// OVC068/// ///TCU 17/11 Q1018 TEMPO 1500 TSRAGS SCT008 BKN013CB
14:00
V
18 °C 10 km+ 3.500 ft 330° 330° 8 kt METAR LFQQ 241200Z AUTO 33008KT 280V020 9999 BKN035 BKN042 BKN049 18/11 Q1018 TEMPO 1500 TSRAGS SCT008 BKN013CB
13:30
V
19 °C 10 km+ 3.200 ft 300° 300° 4 kt METAR LFQQ 241130Z AUTO 30004KT 250V020 9999 BKN032 BKN038 BKN045 19/11 Q1018 TEMPO VRB15G25KT 1500 TSRAGS SCT008 BKN013CB
13:00
M
19 °C 10 km+ 3.000 ft Var Var 3 kt METAR LFQQ 241100Z AUTO VRB03KT 9999 BKN030 BKN044 BKN062 19/12 Q1018 TEMPO 4000 SHRA SCT014 BKN030TCU
12:30
V
18 °C 10 km+ - 290° 290° 6 kt METAR LFQQ 241030Z AUTO 29006KT 250V330 9999 SCT027 18/10 Q1018 TEMPO 4000 SHRA SCT014 BKN030TCU
12:00
M
18 °C 10 km+ 2.300 ft 280° 280° 4 kt METAR LFQQ 241000Z AUTO 28004KT 220V020 9999 BKN023 BKN220 18/12 Q1018 TEMPO 4000 SHRA SCT014 BKN030TCU
11:30
M
17 °C 10 km+ 2.000 ft 270° 270° 4 kt METAR LFQQ 240930Z AUTO 27004KT 220V350 9999 BKN020 BKN100 17/12 Q1019 TEMPO 4000 SHRA SCT014 BKN030TCU
11:00
V
17 °C 10 km+ - 270° 270° 4 kt METAR LFQQ 240900Z AUTO 27004KT 220V320 9999 SCT018 SCT074 17/13 Q1019 NOSIG
10:30
V
16 °C 10 km+ 5.200 ft 270° 270° 5 kt METAR LFQQ 240830Z AUTO 27005KT 220V310 9999 FEW012 BKN052 BKN068 16/13 Q1019 NOSIG
10:00
V
15 °C 10 km+ 4.900 ft 280° 280° 4 kt METAR LFQQ 240800Z AUTO 28004KT 190V340 9999 FEW010 BKN049 OVC072 15/12 Q1019 NOSIG
09:30
I
14 °C 10 km+ 900 ft 290° 290° 4 kt METAR LFQQ 240730Z AUTO 29004KT 250V310 9999 BKN009 OVC100 14/12 Q1019 BECMG BKN030
09:00
V
13 °C 10 km+ 10.000 ft 280° 280° 5 kt METAR LFQQ 240700Z AUTO 28005KT 9999 FEW009 OVC100 13/12 Q1018 NOSIG
08:30
V
13 °C 10 km+ - 260° 260° 4 kt METAR LFQQ 240630Z AUTO 26004KT CAVOK 13/11 Q1018 NOSIG
08:00
V
12 °C 10 km+ - Var Var 2 kt METAR LFQQ 240600Z AUTO VRB02KT CAVOK 12/11 Q1018 NOSIG
07:30
V
12 °C 10 km+ - 190° 190° 2 kt METAR LFQQ 240530Z AUTO 19002KT CAVOK 12/11 Q1018 NOSIG
07:00
V
12 °C 9 km - 180° 180° 2 kt METAR LFQQ 240500Z AUTO 18002KT 9000 NSC 12/11 Q1018 TEMPO BKN004
06:30
V
12 °C 10 km+ - 360° 360° 0 kt METAR LFQQ 240430Z AUTO 00000KT CAVOK 12/11 Q1018 TEMPO BKN004
06:00
V
12 °C 10 km+ - 250° 250° 2 kt METAR LFQQ 240400Z AUTO 25002KT CAVOK 12/11 Q1017 TEMPO BKN004
05:30
V
12 °C 10 km+ 7.200 ft 110° 110° 2 kt METAR LFQQ 240330Z AUTO 11002KT 9999 FEW030 OVC072 12/11 Q1017 TEMPO 2000 BR SCT030TCU
05:00
V
12 °C 10 km+ - 260° 260° 2 kt METAR LFQQ 240300Z AUTO 26002KT CAVOK 12/11 Q1017 TEMPO 2000 BR SCT030TCU
04:30
V
12 °C 10 km+ - 270° 270° 2 kt METAR LFQQ 240230Z AUTO 27002KT CAVOK 12/11 Q1017 TEMPO 2000 BR SCT030TCU
04:00
V
12 °C 10 km+ - 290° 290° 2 kt METAR LFQQ 240200Z AUTO 29002KT CAVOK 12/11 Q1017 TEMPO 2000 BR SCT030TCU
03:30
V
12 °C 10 km+ - 270° 270° 3 kt METAR LFQQ 240130Z AUTO 27003KT CAVOK 12/11 Q1017 TEMPO 2000 BR SCT030TCU
03:00
V
12 °C 10 km+ - 280° 280° 3 kt METAR LFQQ 240100Z AUTO 28003KT CAVOK 12/11 Q1017 TEMPO 2000 BR SCT030TCU
02:30
V
12 °C 10 km+ - 300° 300° 3 kt METAR LFQQ 240030Z AUTO 30003KT CAVOK 12/11 Q1017 TEMPO 2000 BR SCT030TCU
02:00
M
12 °C 7 km - 270° 270° 2 kt METAR LFQQ 240000Z AUTO 27002KT 7000 NSC 12/12 Q1017 TEMPO 2000 BR SCT030TCU
01:30
V
12 °C 9 km - 360° 360° 0 kt METAR LFQQ 232330Z AUTO 00000KT 9000 NSC 12/11 Q1017 TEMPO 2000 BR SCT030TCU
01:00
I
12 °C 2,5 km - 270° 270° 2 kt METAR LFQQ 232300Z AUTO 27002KT 9000 2500 NSC 12/11 Q1017 TEMPO 2000 BR SCT030TCU
00:30
V
12 °C 10 km+ - 360° 360° 0 kt METAR LFQQ 232230Z AUTO 00000KT CAVOK 12/12 Q1017 TEMPO 4000 -SHRA SCT030CB
00:00
V
12 °C 10 km+ - Var Var 2 kt METAR LFQQ 232200Z AUTO VRB02KT CAVOK 12/12 Q1017 TEMPO 4000 -SHRA SCT030CB

23 mai 2024

Temps Code Temps Temp. Vue Base cloud Vent METAR/SPECI
23:30
V
12 °C 10 km+ - 150° 150° 3 kt METAR LFQQ 232130Z AUTO 15003KT CAVOK 12/11 Q1017 TEMPO 4000 -SHRA SCT030CB
23:00
V
13 °C 10 km+ - 360° 360° 0 kt METAR LFQQ 232100Z AUTO 00000KT CAVOK 13/11 Q1017 TEMPO 4000 -SHRA SCT030CB
22:30
V
13 °C 10 km+ - 180° 180° 3 kt METAR LFQQ 232030Z AUTO 18003KT CAVOK 13/12 Q1017 TEMPO 4000 -SHRA SCT030CB
22:00
V
13 °C 10 km+ - Var Var 2 kt METAR LFQQ 232000Z AUTO VRB02KT 9999 //////TCU 13/11 Q1016 TEMPO 4000 -SHRA SCT030CB
21:30
V
14 °C 10 km+ - 250° 250° 4 kt METAR LFQQ 231930Z AUTO 25004KT 9999 //////CB 14/12 Q1016 TEMPO 4000 -SHRA
21:00
V
14 °C 9 km 7.200 ft 250° 250° 5 kt METAR LFQQ 231900Z AUTO 25005KT 9000 -RA FEW031/// SCT060/// BKN072/// //////CB 14/11 Q1016 TEMPO 4000 -SHRA
20:30
I
15 °C 1,6 km 5.400 ft 200° 200° 17 kt METAR LFQQ 231830Z AUTO 20017KT 9999 1600 -TSRA FEW024/// SCT039/// BKN054/// //////CB 15/13 Q1016 TEMPO 4000 -SHRA BECMG 25006KT
20:00
V
19 °C 10 km+ 10.000 ft 250° 250° 4 kt METAR LFQQ 231800Z AUTO 25004KT 9999 VCTS FEW043/// SCT068/// BKN100/// ///CB 19/11 Q1015 TEMPO 4000 -TSRA
19:30
V
19 °C 10 km+ - 250° 250° 5 kt METAR LFQQ 231730Z AUTO 25005KT 9999 ///CB 19/11 Q1015 BECMG BKN020
19:00
V
20 °C 10 km+ 9.800 ft 270° 270° 7 kt METAR LFQQ 231700Z AUTO 27007KT 9999 FEW040/// BKN098/// ///CB 20/11 Q1015 TEMPO 4000 TSRA BECMG 21010KT BKN020
18:30
V
21 °C 10 km+ 9.800 ft 250° 250° 7 - 17 kt METAR LFQQ 231630Z AUTO 25007G17KT 210V280 9999 SCT039/// SCT052/// BKN098/// ///CB 21/11 Q1015 TEMPO 4000 TSRA BECMG BKN020
18:00
V
19 °C 10 km+ 9.200 ft 220° 220° 4 kt METAR LFQQ 231600Z AUTO 22004KT 9999 FEW046/// SCT056/// BKN092/// ///CB 19/11 Q1015 TEMPO 4000 TSRA
17:30
V
19 °C 10 km+ 5.800 ft 220° 220° 6 kt METAR LFQQ 231530Z AUTO 22006KT 180V250 9999 FEW043/// BKN058/// BKN070/// //////CB 19/11 Q1015 TEMPO 4000 TSRA
17:00
V
19 °C 10 km+ 4.700 ft 240° 240° 4 kt METAR LFQQ 231500Z AUTO 24004KT 190V280 9999 SCT039 BKN047 BKN056 19/11 Q1015 TEMPO 4000 TSRA BKN030CB
16:30
V
19 °C 10 km+ 8.200 ft 230° 230° 7 kt METAR LFQQ 231430Z AUTO 23007KT 9999 FEW040 OVC082 19/11 Q1015 TEMPO 4000 TSRA BKN030CB
16:00
V
19 °C 10 km+ 7.000 ft 230° 230° 8 kt METAR LFQQ 231400Z AUTO 23008KT 9999 SCT036 SCT045 BKN070 19/11 Q1015 TEMPO 4000 TSRA BKN030CB
15:30
V
20 °C 10 km+ 8.000 ft 250° 250° 7 kt METAR LFQQ 231330Z AUTO 25007KT 200V300 9999 FEW037 BKN080 OVC100 20/12 Q1015 TEMPO 4000 TSRA BKN030CB
15:00
V
18 °C 10 km+ 7.800 ft 240° 240° 9 kt METAR LFQQ 231300Z AUTO 24009KT 9999 FEW028 BKN078 BKN098 18/12 Q1015 TEMPO 4000 TSRA BKN030CB
14:30
V
19 °C 10 km+ 9.600 ft 220° 220° 11 kt METAR LFQQ 231230Z AUTO 22011KT 170V240 9999 SCT025/// SCT036/// BKN096/// ///CB 19/12 Q1015 TEMPO 4000 TSRA
14:00
V
18 °C 10 km+ 3.800 ft 210° 210° 7 kt METAR LFQQ 231200Z AUTO 21007KT 180V240 9999 SCT022/// BKN038/// BKN060/// //////TCU 18/12 Q1015 TEMPO 4000 TSRA BKN030CB
13:30
V
16 °C 10 km+ 5.000 ft 230° 230° 9 kt METAR LFQQ 231130Z AUTO 23009KT 190V250 9999 FEW017/// SCT035/// BKN050/// ///CB 16/12 Q1015 TEMPO 4000 TSRA
13:00
M
17 °C 10 km+ 1.600 ft 200° 200° 10 kt METAR LFQQ 231100Z AUTO 20010KT 170V240 9999 BKN016/// BKN023/// BKN036/// ///CB 17/13 Q1016 TEMPO 4000 SHRA
12:30
M
16 °C 10 km+ 1.700 ft 190° 190° 11 kt METAR LFQQ 231030Z AUTO 19011KT 160V230 9999 BKN017/// BKN022/// BKN027/// //////TCU 16/13 Q1016 TEMPO 4000 SHRA SCT030CB
12:00
M
16 °C 10 km+ 1.600 ft 210° 210° 10 kt METAR LFQQ 231000Z AUTO 21010KT 9999 BKN016/// BKN023/// OVC036/// ///TCU 16/12 Q1015 TEMPO 4000 SHRA SCT030CB
11:30
M
16 °C 10 km+ 2.400 ft 200° 200° 9 kt METAR LFQQ 230930Z AUTO 20009KT 9999 SCT016 BKN024 OVC034 16/12 Q1015 TEMPO 4000 SHRA SCT030CB
11:00
M
16 °C 10 km+ 1.700 ft 190° 190° 9 kt METAR LFQQ 230900Z AUTO 19009KT 9999 BKN017 BKN025 OVC031 16/12 Q1015 NOSIG
10:30
M
16 °C 10 km+ 1.800 ft 220° 220° 8 kt METAR LFQQ 230830Z AUTO 22008KT 190V250 9999 BKN018 BKN024 BKN032 16/12 Q1015 NOSIG
10:00
M
16 °C 10 km+ 1.600 ft 220° 220° 9 kt METAR LFQQ 230800Z AUTO 22009KT 9999 BKN016/// BKN025/// BKN036/// 16/12 Q1015
09:30
M
15 °C 10 km+ 1.400 ft 210° 210° 8 kt METAR LFQQ 230730Z AUTO 21008KT 190V250 9999 BKN014 OVC088 15/12 Q1015 BECMG NSC
09:00
V
15 °C 10 km+ 8.600 ft 220° 220° 9 kt METAR LFQQ 230700Z AUTO 22009KT 9999 SCT012 OVC086 15/12 Q1014 NOSIG
08:30
V
14 °C 10 km+ 8.400 ft 210° 210° 7 kt METAR LFQQ 230630Z AUTO 21007KT 180V250 9999 FEW035 OVC084 14/12 Q1014 NOSIG
08:00
V
13 °C 10 km+ 8.000 ft 210° 210° 7 kt METAR LFQQ 230600Z AUTO 21007KT 190V250 9999 FEW032 OVC080 13/11 Q1014 NOSIG
Signaler les modifications